createdAt,value
2022-12-18T00:01:32.155Z,101184.13
2022-12-18T00:04:01.052Z,101176.38
2022-12-18T00:06:30.623Z,101192.25
2022-12-18T00:08:59.671Z,101184.41
2022-12-18T00:11:30.432Z,101180.22
2022-12-18T00:14:00.843Z,101204.38
2022-12-18T00:16:31.937Z,101214.72
2022-12-18T00:19:00.051Z,101201.66
2022-12-18T00:21:29.213Z,101204.28
2022-12-18T00:23:57.101Z,101192.94
2022-12-18T00:26:26.525Z,101194.59
2022-12-18T00:29:01.233Z,101192.88
2022-12-18T00:31:41.043Z,101178.94
2022-12-18T00:34:09.156Z,101171.97
2022-12-18T00:36:37.252Z,101173.69
2022-12-18T00:39:07.477Z,101173.78
2022-12-18T00:41:53.587Z,101171.13
2022-12-18T00:44:21.926Z,101178.03
2022-12-18T00:46:51.352Z,101182.28
2022-12-18T00:49:21.173Z,101193.53
2022-12-18T00:51:48.983Z,101189.41
2022-12-18T00:54:17.243Z,101192.03
2022-12-18T00:56:49.285Z,101210.06
2022-12-18T00:59:18.323Z,101216.09
2022-12-18T01:01:46.434Z,101217.78
2022-12-18T01:04:16.220Z,101217.00
2022-12-18T01:06:47.022Z,101218.75
2022-12-18T01:09:15.657Z,101218.88
2022-12-18T01:11:43.613Z,101222.28
2022-12-18T01:14:12.491Z,101208.31
2022-12-18T01:16:40.761Z,101197.16
2022-12-18T01:19:08.769Z,101194.47
2022-12-18T01:21:38.012Z,101190.16
2022-12-18T01:24:06.828Z,101193.00
2022-12-18T01:26:35.113Z,101173.75
2022-12-18T01:29:03.105Z,101185.06
2022-12-18T01:31:33.223Z,101187.69
2022-12-18T01:34:04.770Z,101172.19
2022-12-18T01:36:34.956Z,101167.06
2022-12-18T01:39:09.177Z,101155.69
2022-12-18T01:41:51.271Z,101145.28
2022-12-18T01:44:56.690Z,101150.63
2022-12-18T01:47:28.114Z,101144.47
2022-12-18T01:49:58.074Z,101143.56
2022-12-18T01:52:27.777Z,101137.69
2022-12-18T01:54:58.279Z,101157.66
2022-12-18T01:57:28.250Z,101146.38
2022-12-18T02:00:01.729Z,101138.53
2022-12-18T02:02:42.186Z,101136.00
2022-12-18T02:05:12.178Z,101136.94
2022-12-18T02:07:49.201Z,101130.88
2022-12-18T02:10:24.493Z,101135.22
2022-12-18T02:13:03.566Z,101141.22
2022-12-18T02:15:38.101Z,101144.81
2022-12-18T02:18:12.414Z,101153.38
2022-12-18T02:20:47.162Z,101166.53
2022-12-18T02:23:33.412Z,101149.06
2022-12-18T02:26:20.683Z,101145.31
2022-12-18T02:28:55.775Z,101116.78
2022-12-18T02:31:27.450Z,101113.19
2022-12-18T02:34:01.262Z,101106.34
2022-12-18T02:36:34.018Z,101115.88
2022-12-18T02:39:03.769Z,101108.97
2022-12-18T02:41:37.191Z,101110.72
2022-12-18T02:44:10.537Z,101102.91
2022-12-18T02:46:41.812Z,101109.91
2022-12-18T02:49:26.159Z,101107.31
2022-12-18T02:51:57.665Z,101112.50
2022-12-18T02:54:57.798Z,101095.84
2022-12-18T02:57:36.670Z,101099.28
2022-12-18T03:00:09.928Z,101118.50
2022-12-18T03:02:47.776Z,101121.19
2022-12-18T03:05:18.562Z,101118.47
2022-12-18T03:07:56.306Z,101115.00
2022-12-18T03:10:30.033Z,101120.22
2022-12-18T03:13:04.120Z,101109.56
2022-12-18T03:15:38.921Z,101107.78
2022-12-18T03:18:15.482Z,101101.63
2022-12-18T03:20:46.158Z,101098.97
2022-12-18T03:23:22.334Z,101104.19
2022-12-18T03:25:56.867Z,101104.22
2022-12-18T03:28:33.616Z,101091.09
2022-12-18T03:31:07.834Z,101102.47
2022-12-18T03:33:42.049Z,101086.78
2022-12-18T03:36:10.858Z,101085.19
2022-12-18T03:38:39.959Z,101073.13
2022-12-18T03:41:17.904Z,101059.97
2022-12-18T03:44:13.969Z,101058.19
2022-12-18T03:46:52.886Z,101041.59
2022-12-18T03:49:28.560Z,101045.16
2022-12-18T03:52:05.023Z,101031.13
2022-12-18T03:54:36.067Z,101035.59
2022-12-18T03:57:18.191Z,101031.13
2022-12-18T03:59:54.152Z,101030.34
2022-12-18T04:02:29.946Z,101020.66
2022-12-18T04:05:04.729Z,101006.69
2022-12-18T04:07:34.223Z,101003.16
2022-12-18T04:10:04.252Z,101003.16
2022-12-18T04:12:33.487Z,100999.66
2022-12-18T04:15:05.676Z,101005.81
2022-12-18T04:17:33.794Z,101001.41
2022-12-18T04:20:05.670Z,101009.31
2022-12-18T04:22:33.997Z,101004.06
2022-12-18T04:25:04.077Z,101011.09
2022-12-18T04:27:41.264Z,101021.56
2022-12-18T04:30:16.429Z,101008.41
2022-12-18T04:32:54.489Z,101001.44
2022-12-18T04:35:28.219Z,101006.72
2022-12-18T04:37:56.881Z,101014.59
2022-12-18T04:40:38.949Z,101004.00
2022-12-18T04:43:47.315Z,101009.25
2022-12-18T04:49:22.227Z,101011.84
2022-12-18T04:51:50.491Z,101024.97
2022-12-18T04:54:21.423Z,101026.69
2022-12-18T04:56:49.716Z,101035.44
2022-12-18T04:59:17.985Z,101031.81
2022-12-18T05:01:48.038Z,101039.72
2022-12-18T05:04:16.500Z,101028.28
2022-12-18T05:06:49.287Z,101036.06
2022-12-18T05:09:20.156Z,101034.34
2022-12-18T05:11:48.732Z,101032.59
2022-12-18T05:14:16.976Z,101034.25
2022-12-18T05:16:48.898Z,101044.78
2022-12-18T05:19:19.172Z,101044.69
2022-12-18T05:22:01.377Z,101046.44
2022-12-18T05:24:31.978Z,101042.88
2022-12-18T05:27:11.790Z,101047.22
2022-12-18T05:29:39.936Z,101042.84
2022-12-18T05:32:07.953Z,101037.59
2022-12-18T05:34:37.375Z,101043.75
2022-12-18T05:37:05.323Z,101042.91
2022-12-18T05:39:33.534Z,101054.13
2022-12-18T05:42:01.406Z,101047.19
2022-12-18T05:44:30.653Z,101044.66
2022-12-18T05:47:01.181Z,101056.81
2022-12-18T05:49:33.973Z,101064.75
2022-12-18T05:52:04.513Z,101064.75
2022-12-18T05:54:42.007Z,101077.94
2022-12-18T05:57:13.479Z,101085.66
2022-12-18T05:59:41.851Z,101087.41
2022-12-18T06:02:12.080Z,101093.50
2022-12-18T06:04:40.318Z,101099.59
2022-12-18T06:07:09.895Z,101102.19
2022-12-18T06:09:38.075Z,101105.84
2022-12-18T06:12:06.965Z,101119.81
2022-12-18T06:15:02.517Z,101132.00
2022-12-18T06:17:32.512Z,101124.94
2022-12-18T06:20:08.398Z,101121.50
2022-12-18T06:22:44.369Z,101120.72
2022-12-18T06:25:12.801Z,101111.03
2022-12-18T06:27:41.134Z,101113.59
2022-12-18T06:30:12.066Z,101103.91
2022-12-18T06:32:42.663Z,101096.97
2022-12-18T06:35:15.595Z,101101.22
2022-12-18T06:37:47.712Z,101095.13
2022-12-18T06:40:18.398Z,101084.59
2022-12-18T06:42:51.867Z,101071.50
2022-12-18T06:45:20.036Z,101062.81
2022-12-18T06:47:50.819Z,101055.78
2022-12-18T06:50:27.466Z,101061.81
2022-12-18T06:52:56.844Z,101054.75
2022-12-18T06:55:37.088Z,101057.34
2022-12-18T06:58:15.504Z,101062.34
2022-12-18T07:00:43.705Z,101050.28
2022-12-18T07:03:12.585Z,101046.69
2022-12-18T07:05:42.097Z,101051.06
2022-12-18T07:08:11.480Z,101043.16
2022-12-18T07:10:47.504Z,101044.06
2022-12-18T07:13:16.059Z,101053.69
2022-12-18T07:15:43.966Z,101053.75
2022-12-18T07:18:12.929Z,101052.97
2022-12-18T07:20:41.467Z,101071.09
2022-12-18T07:23:09.318Z,101075.31
2022-12-18T07:25:39.373Z,101081.34
2022-12-18T07:28:07.771Z,101058.09
2022-12-18T07:30:39.322Z,101066.72
2022-12-18T07:33:07.153Z,101069.47
2022-12-18T07:35:42.207Z,101065.06
2022-12-18T07:38:10.004Z,101073.66
2022-12-18T07:40:39.227Z,101063.19
2022-12-18T07:43:07.117Z,101064.94
2022-12-18T07:45:35.183Z,101062.47
2022-12-18T07:48:03.255Z,101083.34
2022-12-18T07:50:31.202Z,101104.28
2022-12-18T07:52:59.070Z,101103.25
2022-12-18T07:55:27.154Z,101111.13
2022-12-18T07:58:01.395Z,101111.97
2022-12-18T08:00:29.342Z,101111.13
2022-12-18T08:02:57.334Z,101114.59
2022-12-18T08:05:25.663Z,101096.38
2022-12-18T08:07:53.742Z,101084.09
2022-12-18T08:10:24.297Z,101068.47
2022-12-18T08:12:52.692Z,101056.25
2022-12-18T08:15:22.032Z,101051.13
2022-12-18T08:17:50.006Z,101042.34
2022-12-18T08:20:19.310Z,101027.03
2022-12-18T08:22:47.424Z,100989.84
2022-12-18T08:25:15.377Z,100969.81
2022-12-18T08:27:43.570Z,100950.41
2022-12-18T08:30:13.049Z,100939.69
2022-12-18T08:32:43.768Z,100958.19
2022-12-18T08:35:12.913Z,100992.66
2022-12-18T08:37:42.468Z,101019.16
2022-12-18T08:40:11.853Z,101040.25
2022-12-18T08:42:57.030Z,101048.19
2022-12-18T08:45:25.737Z,101056.94
2022-12-18T08:47:54.838Z,101081.56
2022-12-18T08:50:22.659Z,101078.03
2022-12-18T08:52:50.606Z,101073.63
2022-12-18T08:55:18.662Z,101070.13
2022-12-18T08:57:50.323Z,101055.19
2022-12-18T09:00:19.086Z,101060.50
2022-12-18T09:02:47.085Z,101040.28
2022-12-18T09:05:16.595Z,101024.38
2022-12-18T09:07:44.853Z,101013.75
2022-12-18T09:10:13.632Z,101007.59
2022-12-18T09:12:42.162Z,100994.38
2022-12-18T09:15:12.679Z,101009.38
2022-12-18T09:17:40.787Z,101008.50
2022-12-18T09:20:13.178Z,101013.78
2022-12-18T09:22:43.010Z,101004.97
2022-12-18T09:25:11.168Z,100989.13
2022-12-18T09:27:40.406Z,100976.75
2022-12-18T09:30:12.070Z,100975.75
2022-12-18T09:32:43.190Z,100976.59
2022-12-18T09:35:11.381Z,100973.94
2022-12-18T09:37:39.462Z,100971.25
2022-12-18T09:40:15.955Z,100974.72
2022-12-18T09:42:53.091Z,100970.97
2022-12-18T09:45:22.863Z,100966.38
2022-12-18T09:47:58.007Z,100977.81
2022-12-18T09:50:44.853Z,100976.94
2022-12-18T09:53:21.208Z,100956.19
2022-12-18T09:56:05.073Z,100974.66
2022-12-18T09:58:46.997Z,101000.31
2022-12-18T10:01:37.677Z,101025.94
2022-12-18T10:04:11.877Z,101042.53
2022-12-18T10:06:49.581Z,101057.66
2022-12-18T10:09:31.962Z,101042.44
2022-12-18T10:12:15.221Z,101053.03
2022-12-18T10:14:54.632Z,101081.28
2022-12-18T10:17:42.651Z,101085.53
2022-12-18T10:20:19.003Z,101096.03
2022-12-18T10:23:06.300Z,101089.81
2022-12-18T10:26:16.816Z,101096.97
2022-12-18T10:29:05.890Z,101084.13
2022-12-18T10:31:38.444Z,101115.47
2022-12-18T10:34:11.807Z,101104.72
2022-12-18T10:36:40.611Z,101106.91
2022-12-18T10:39:25.338Z,101142.56
2022-12-18T10:41:53.821Z,101129.72
2022-12-18T10:44:30.684Z,101151.13
2022-12-18T10:47:11.694Z,101150.13
2022-12-18T10:49:49.143Z,101143.59
2022-12-18T10:52:21.241Z,101157.94
2022-12-18T10:54:53.227Z,101165.25
2022-12-18T10:57:36.722Z,101172.34
2022-12-18T11:00:31.227Z,101142.78
2022-12-18T11:03:32.440Z,101156.31
2022-12-18T11:06:06.152Z,101157.06
2022-12-18T11:08:42.048Z,101159.72
2022-12-18T11:11:24.413Z,101180.06
2022-12-18T11:14:03.380Z,101177.44
2022-12-18T11:17:03.078Z,101160.38
2022-12-18T11:19:40.956Z,101124.75
2022-12-18T11:22:22.696Z,101151.81
2022-12-18T11:27:54.784Z,101155.53
2022-12-18T11:30:27.406Z,101163.69
2022-12-18T11:33:01.604Z,101145.88
2022-12-18T11:35:48.155Z,101136.19
2022-12-18T11:38:28.356Z,101125.13
2022-12-18T11:41:01.584Z,101134.03
2022-12-18T11:43:34.010Z,101139.44
2022-12-18T11:46:25.805Z,101135.09
2022-12-18T11:49:10.519Z,101129.47
2022-12-18T11:51:51.382Z,101145.69
2022-12-18T11:54:22.567Z,101151.91
2022-12-18T11:56:55.731Z,101157.53
2022-12-18T11:59:37.952Z,101141.50
2022-12-18T12:02:27.026Z,101150.50
2022-12-18T12:05:24.793Z,101139.63
2022-12-18T12:07:56.943Z,101135.28
2022-12-18T12:10:39.636Z,101123.34
2022-12-18T12:13:28.128Z,101133.50
2022-12-18T12:19:29.443Z,101140.53
2022-12-18T12:22:14.272Z,101136.38
2022-12-18T12:24:56.470Z,101128.91
2022-12-18T12:27:39.078Z,101132.59
2022-12-18T12:30:25.035Z,101134.56
2022-12-18T12:33:12.170Z,101138.97
2022-12-18T12:35:49.831Z,101127.28
2022-12-18T12:38:28.568Z,101136.38
2022-12-18T12:41:04.490Z,101129.28
2022-12-18T12:43:50.852Z,101136.38
2022-12-18T12:46:23.132Z,101131.97
2022-12-18T12:48:55.053Z,101126.66
2022-12-18T12:51:25.935Z,101120.72
2022-12-18T12:53:58.290Z,101112.72
2022-12-18T12:56:39.281Z,101113.56
2022-12-18T12:59:19.325Z,101115.34
2022-12-18T13:01:56.315Z,101114.38
2022-12-18T13:04:33.846Z,101122.53
2022-12-18T13:07:07.555Z,101116.03
2022-12-18T13:10:15.497Z,101100.97
2022-12-18T13:12:58.603Z,101112.69
2022-12-18T13:15:44.700Z,101095.78
2022-12-18T13:18:17.849Z,101106.69
2022-12-18T13:20:53.075Z,101097.75
2022-12-18T13:23:35.186Z,101085.31
2022-12-18T13:26:32.209Z,101088.69
2022-12-18T13:29:02.964Z,101090.47
2022-12-18T13:32:13.722Z,101093.28
2022-12-18T13:34:45.356Z,101074.75
2022-12-18T13:37:42.401Z,101059.63
2022-12-18T13:40:59.511Z,101059.63
2022-12-18T13:43:33.372Z,101061.41
2022-12-18T13:46:05.744Z,101059.66
2022-12-18T13:48:38.192Z,101053.19
2022-12-18T13:51:08.612Z,101058.81
2022-12-18T13:53:41.557Z,101054.53
2022-12-18T13:56:09.905Z,101050.94
2022-12-18T13:58:38.338Z,101040.22
2022-12-18T14:01:23.906Z,101039.03
2022-12-18T14:04:09.653Z,101054.50
2022-12-18T14:06:38.626Z,101044.16
2022-12-18T14:09:06.469Z,101035.75
2022-12-18T14:11:37.944Z,101049.34
2022-12-18T14:14:09.250Z,101049.16
2022-12-18T14:16:38.966Z,101039.38
2022-12-18T14:19:15.079Z,101043.16
2022-12-18T14:21:48.389Z,101028.94
2022-12-18T14:24:19.701Z,101040.47
2022-12-18T14:26:50.434Z,101035.25
2022-12-18T14:29:28.348Z,101028.22
2022-12-18T14:32:17.976Z,101007.63
2022-12-18T14:34:48.154Z,101016.59
2022-12-18T14:37:18.444Z,101023.59
2022-12-18T14:39:57.953Z,101030.78
2022-12-18T14:42:28.867Z,101024.31
2022-12-18T14:45:41.101Z,101040.34
2022-12-18T14:48:19.071Z,101039.75
2022-12-18T14:50:58.821Z,101036.22
2022-12-18T14:53:35.135Z,101028.34
2022-12-18T14:56:03.685Z,101014.78
2022-12-18T14:58:31.853Z,101014.88
2022-12-18T15:01:00.111Z,101018.59
2022-12-18T15:03:29.688Z,101021.03
2022-12-18T15:05:57.987Z,101028.22
2022-12-18T15:08:32.048Z,101037.09
2022-12-18T15:11:04.293Z,101026.53
2022-12-18T15:13:34.637Z,101030.09
2022-12-18T15:16:04.952Z,101031.91
2022-12-18T15:18:43.172Z,101018.31
2022-12-18T15:21:13.448Z,101016.72
2022-12-18T15:23:49.229Z,101000.75
2022-12-18T15:26:19.638Z,101012.34
2022-12-18T15:28:51.111Z,101009.69
2022-12-18T15:31:30.682Z,101008.00
2022-12-18T15:34:13.326Z,101002.75
2022-12-18T15:36:41.911Z,101005.22
2022-12-18T15:39:13.431Z,101011.56
2022-12-18T15:41:41.637Z,101006.25
2022-12-18T15:44:24.172Z,101010.75
2022-12-18T15:46:52.064Z,101008.13
2022-12-18T15:49:21.546Z,100999.09
2022-12-18T15:51:54.140Z,101008.13
2022-12-18T15:54:43.586Z,101009.97
2022-12-18T15:57:25.791Z,101008.03
2022-12-18T15:59:55.419Z,101010.00
2022-12-18T16:02:24.780Z,100993.19
2022-12-18T16:04:55.198Z,100994.25
2022-12-18T16:07:25.449Z,101000.22
2022-12-18T16:09:54.095Z,100993.47
2022-12-18T16:12:28.760Z,100980.09
2022-12-18T16:14:59.426Z,100983.53
2022-12-18T16:17:45.580Z,100990.84
2022-12-18T16:20:26.822Z,100990.16
2022-12-18T16:22:55.041Z,100973.31
2022-12-18T16:25:28.205Z,100972.66
2022-12-18T16:27:58.476Z,100956.63
2022-12-18T16:30:33.838Z,100947.72
2022-12-18T16:33:12.785Z,100932.66
2022-12-18T16:35:42.725Z,100935.41
2022-12-18T16:38:13.016Z,100926.50
2022-12-18T16:40:58.302Z,100916.84
2022-12-18T16:43:26.426Z,100909.72
2022-12-18T16:45:58.371Z,100908.09
2022-12-18T16:48:28.279Z,100891.16
2022-12-18T16:51:03.746Z,100885.06
2022-12-18T16:53:33.380Z,100878.78
2022-12-18T16:56:03.904Z,100871.81
2022-12-18T16:58:38.729Z,100854.19
2022-12-18T17:01:13.626Z,100836.47
2022-12-18T17:03:42.301Z,100834.81
2022-12-18T17:06:20.237Z,100818.84
2022-12-18T17:08:49.402Z,100810.97
2022-12-18T17:11:18.621Z,100805.81
2022-12-18T17:13:46.598Z,100792.31
2022-12-18T17:16:26.362Z,100783.53
2022-12-18T17:18:57.599Z,100790.75
2022-12-18T17:21:30.557Z,100752.50
2022-12-18T17:24:01.676Z,100758.09
2022-12-18T17:26:30.353Z,100759.00
2022-12-18T17:28:59.156Z,100744.66
2022-12-18T17:31:29.075Z,100736.78
2022-12-18T17:34:12.047Z,100721.66
2022-12-18T17:36:41.808Z,100718.47
2022-12-18T17:39:13.152Z,100705.13
2022-12-18T17:41:43.468Z,100695.50
2022-12-18T17:44:14.559Z,100706.88
2022-12-18T17:46:42.651Z,100696.28
2022-12-18T17:49:11.710Z,100692.91
2022-12-18T17:51:50.217Z,100685.69
2022-12-18T17:54:26.681Z,100696.38
2022-12-18T17:57:21.087Z,100701.16
2022-12-18T17:59:54.055Z,100686.81
2022-12-18T18:02:26.023Z,100671.94
2022-12-18T18:04:59.200Z,100678.88
2022-12-18T18:07:30.029Z,100672.72
2022-12-18T18:09:58.334Z,100671.13
2022-12-18T18:12:45.951Z,100672.75
2022-12-18T18:15:14.283Z,100663.00
2022-12-18T18:17:43.437Z,100671.94
2022-12-18T18:20:22.331Z,100650.44
2022-12-18T18:22:53.143Z,100661.25
2022-12-18T18:25:21.869Z,100665.63
2022-12-18T18:27:50.752Z,100660.16
2022-12-18T18:30:18.728Z,100679.00
2022-12-18T18:32:47.943Z,100672.13
2022-12-18T18:35:45.096Z,100670.13
2022-12-18T18:38:10.101Z,100666.66
2022-12-18T18:40:40.261Z,100648.91
2022-12-18T18:43:09.610Z,100645.53
2022-12-18T18:45:37.635Z,100649.13
2022-12-18T18:48:10.490Z,100580.88
2022-12-18T18:51:06.255Z,100609.66
2022-12-18T18:53:40.245Z,100663.94
2022-12-18T18:59:12.693Z,100640.00
2022-12-18T19:01:41.065Z,100651.59
2022-12-18T19:04:13.967Z,100637.41
2022-12-18T19:06:42.871Z,100631.31
2022-12-18T19:09:12.679Z,100630.22
2022-12-18T19:11:58.586Z,100626.81
2022-12-18T19:14:29.338Z,100623.25
2022-12-18T19:16:57.970Z,100626.75
2022-12-18T19:19:27.155Z,100632.19
2022-12-18T19:22:02.512Z,100610.81
2022-12-18T19:24:32.092Z,100623.28
2022-12-18T19:27:02.153Z,100617.06
2022-12-18T19:29:30.200Z,100616.13
2022-12-18T19:31:58.498Z,100627.72
2022-12-18T19:34:26.889Z,100625.88
2022-12-18T19:36:59.755Z,100611.59
2022-12-18T19:39:28.391Z,100609.97
2022-12-18T19:41:58.048Z,100599.28
2022-12-18T19:44:26.816Z,100602.69
2022-12-18T19:46:54.792Z,100601.00
2022-12-18T19:49:22.776Z,100604.75
2022-12-18T19:51:51.169Z,100597.56
2022-12-18T19:54:19.479Z,100604.47
2022-12-18T19:56:47.890Z,100607.25
2022-12-18T19:59:17.616Z,100612.53
2022-12-18T20:01:45.545Z,100601.88
2022-12-18T20:04:13.671Z,100603.69
2022-12-18T20:06:49.091Z,100618.59
2022-12-18T20:09:17.688Z,100638.09
2022-12-18T20:11:46.006Z,100629.03
2022-12-18T20:14:19.638Z,100632.47
2022-12-18T20:16:54.219Z,100636.88
2022-12-18T20:19:22.616Z,100651.22
2022-12-18T20:21:51.062Z,100650.25
2022-12-18T20:24:19.013Z,100648.53
2022-12-18T20:26:47.093Z,100643.91
2022-12-18T20:29:15.093Z,100653.06
2022-12-18T20:31:43.137Z,100633.22
2022-12-18T20:34:12.517Z,100644.06
2022-12-18T20:36:40.868Z,100641.34
2022-12-18T20:39:10.824Z,100636.69
2022-12-18T20:41:40.215Z,100634.34
2022-12-18T20:44:20.675Z,100617.59
2022-12-18T20:46:52.976Z,100594.44
2022-12-18T20:49:23.020Z,100609.56
2022-12-18T20:51:52.547Z,100597.88
2022-12-18T20:54:20.861Z,100608.69
2022-12-18T20:56:48.939Z,100601.22
2022-12-18T20:59:17.797Z,100599.69
2022-12-18T21:01:48.290Z,100589.06
2022-12-18T21:04:18.312Z,100584.44
2022-12-18T21:06:52.923Z,100584.63
2022-12-18T21:09:22.494Z,100568.34
2022-12-18T21:12:14.072Z,100575.63
2022-12-18T21:14:42.783Z,100566.88
2022-12-18T21:17:11.059Z,100561.69
2022-12-18T21:19:39.413Z,100557.41
2022-12-18T21:22:09.005Z,100543.28
2022-12-18T21:24:37.180Z,100538.94
2022-12-18T21:27:05.352Z,100531.94
2022-12-18T21:29:34.834Z,100516.00
2022-12-18T21:32:04.068Z,100506.00
2022-12-18T21:34:33.457Z,100507.84
2022-12-18T21:37:02.600Z,100495.50
2022-12-18T21:39:32.549Z,100495.81
2022-12-18T21:42:18.604Z,100486.03
2022-12-18T21:44:49.177Z,100467.91
2022-12-18T21:47:22.543Z,100455.44
2022-12-18T21:49:52.773Z,100456.34
2022-12-18T21:52:21.761Z,100446.81
2022-12-18T21:55:08.575Z,100432.47
2022-12-18T21:57:37.783Z,100425.59
2022-12-18T22:00:06.879Z,100417.63
2022-12-18T22:02:40.588Z,100400.78
2022-12-18T22:05:09.737Z,100387.34
2022-12-18T22:07:39.490Z,100380.34
2022-12-18T22:10:09.942Z,100364.50
2022-12-18T22:12:43.146Z,100355.63
2022-12-18T22:15:20.286Z,100344.97
2022-12-18T22:17:50.523Z,100338.81
2022-12-18T22:20:20.082Z,100322.91
2022-12-18T22:22:48.837Z,100318.72
2022-12-18T22:25:18.504Z,100298.16
2022-12-18T22:28:07.112Z,100290.25
2022-12-18T22:30:34.142Z,100278.06
2022-12-18T22:33:02.851Z,100265.41
2022-12-18T22:35:30.854Z,100257.41
2022-12-18T22:37:59.661Z,100243.34
2022-12-18T22:40:30.105Z,100228.97
2022-12-18T22:42:58.437Z,100223.75
2022-12-18T22:45:27.065Z,100215.66
2022-12-18T22:47:55.227Z,100213.00
2022-12-18T22:50:23.279Z,100206.03
2022-12-18T22:52:51.366Z,100196.97
2022-12-18T22:55:19.306Z,100187.31
2022-12-18T22:57:54.813Z,100176.75
2022-12-18T23:00:24.073Z,100155.25
2022-12-18T23:02:59.180Z,100162.72
2022-12-18T23:05:29.668Z,100143.00
2022-12-18T23:07:57.730Z,100128.66
2022-12-18T23:10:25.787Z,100116.19
2022-12-18T23:12:55.282Z,100094.06
2022-12-18T23:15:27.647Z,100087.94
2022-12-18T23:17:56.903Z,100060.31
2022-12-18T23:20:24.912Z,100056.22
2022-12-18T23:22:53.049Z,100043.09
2022-12-18T23:25:21.129Z,100040.31
2022-12-18T23:27:49.090Z,100035.94
2022-12-18T23:30:18.737Z,100012.59
2022-12-18T23:32:46.657Z,100019.09
2022-12-18T23:35:15.876Z,99993.97
2022-12-18T23:38:00.070Z,99998.13
2022-12-18T23:40:29.846Z,99985.69
2022-12-18T23:42:57.989Z,99976.72
2022-12-18T23:45:27.561Z,99978.53
2022-12-18T23:47:55.628Z,99974.28
2022-12-18T23:50:28.827Z,99970.72
2022-12-18T23:53:02.130Z,99959.97
2022-12-18T23:55:35.085Z,99950.38
2022-12-18T23:58:03.000Z,99952.72
